Mehama, Oregon
Current Conditions -  °F | °C
As of 4:56 PM on Saturday 25 Oct 2014 (Local Time) from KSLE Reporting Station
Broken Clouds Broken Clouds  
Wind Chill: 58°   Ceiling: 5500
Heat Index: 58°   Visibility: 10mi
Dew Point: 53°   Wind: 18mph
Humidity: 84%   Direction: 200°SSW
Pressure: 29.56"   Gusts: 35mph
Location:  44.79°N, 122.62°W
Report Text: KSLE 252356Z 20016G30KT 10SM SCT029 SCT043 BKN055 14/12 A2956 RMK AO2 PK WND 21032/2325 RAE29 PRESRR SLP010 P0006 60007 T01440117 10183 20128 53055
Loading
Personal Weather Stations






























Interactive Weather Map
Tropical Storm Tracking
New forecast layout! Learn more

10-Day Weather Forecast

Advertisements
Track Severe Weather on mobile